EBCI - Charleroi/Gosselies, Belgium
Distance de la station: NE 18km
Mise à jour: 20/09/2017 03:20
brume, nuageux
brume, nuageux
 Wind from OSO
Vent: OSO 9 km/h
Température: 11°C
Point de rosée: 10°C
Humidité: 94%
Baromètre: 1022 hPa
Résumé: brume
Ciel: nuageux
Visibilité: 5 km
Détails du ciel: partiellement nuageux 183 m
nuageux 366 m
2017/09/20 01:20 EBCI 200120Z 24005KT 5000 BR SCT006 BKN012 11/10 Q1022 TEMPO 3000 BR BKN006
EBFS - Florennes, Belgium
Distance de la station: ESE 31km
Mise à jour: 20/09/2017 03:25
brume, couvert
brume, couvert
 Wind from O
Vent: O 6 km/h
Résumé: brume
Ciel: couvert
Visibilité: 4 km
Détails du ciel: nuageux 91 m
couvert 152 m
2017/09/20 01:25 EBFS 200125Z AUTO 27003KT 3500 BR BKN003/// OVC005/// 10/// Q1022 YLO
EBCV - Chievres, Belgium
Distance de la station: NO 40km
Mise à jour: 20/09/2017 03:25
nuageux
nuageux
 Wind from OSO
Vent: OSO 7 km/h
Température: 11°C
Point de rosée: 10°C
Humidité: 94%
Baromètre: 1022 hPa
Ciel: nuageux
Visibilité: 7 km
Détails du ciel: nuageux 792 m
2017/09/20 01:25 EBCV 200125Z AUTO 25004KT 7000 BKN026/// 11/10 Q1022 WHT
 
EBBE - Beauvechain, Belgium
Distance de la station: NE 57km
Mise à jour: 20/09/2017 03:25
couvert
couvert
 Wind from OSO
Vent: OSO 11 km/h
Température: 11°C
Point de rosée: 10°C
Humidité: 94%
Baromètre: 1021 hPa
Ciel: couvert
Visibilité: 7 km
Détails du ciel: couvert 1981 m
2017/09/20 01:25 EBBE 200125Z AUTO 24006KT 7000 OVC065/// 11/10 Q1021 WHT
EBBR - Brussels National, Belgium
Distance de la station: NNE 63km
Mise à jour: 20/09/2017 03:20
clair
clair
 Wind from OSO
Vent: OSO 7 km/h
Température: 11°C
Point de rosée: 10°C
Humidité: 94%
Baromètre: 1021 hPa
Résumé: clair
Visibilité: greater than 10 km
2017/09/20 01:20 EBBR 200120Z 24004KT CAVOK 11/10 Q1021 NOSIG
LFQI - Cambrai/Epinoy, France
Distance de la station: O 82km
Mise à jour: 29/06/2012 12:30
NOT Current

 Wind from SO
Vent: SO 17 km/h
Température: 18°C
Point de rosée: 14°C
Humidité: 78%
Baromètre: 1009 hPa
2012/06/29 10:30 LFQI 291030Z AUTO 22009KT //// // ///////// 18/14 Q1009
 
LFQQ - Lille/Lesquin, France
Distance de la station: ONO 86km
Mise à jour: 20/09/2017 03:30
partiellement nuageux
partiellement nuageux
 Wind from OSO
Vent: OSO 7 km/h
Température: 8°C
Température ressentie: 7°C
Point de rosée: 7°C
Humidité: 93%
Baromètre: 1022 hPa
Ciel: partiellement nuageux
Visibilité: 9 km
2017/09/20 01:30 LFQQ 200130Z AUTO 25004KT 9000 NSC 08/07 Q1022 TEMPO 4000 BR
EBLG - Bierset/Liege, Belgium
Distance de la station: ENE 89km
Mise à jour: 20/09/2017 03:20
brume, partiellement nuageux
brume, partiellement nuageux
 Wind from OSO
Vent: OSO 11 km/h
Température: 10°C
Température ressentie: 8°C
Point de rosée: 9°C
Humidité: 94%
Baromètre: 1021 hPa
Résumé: brume
Ciel: partiellement nuageux
Visibilité: 2 km
Détails du ciel: quelques nuages 61 m
partiellement nuageux 91 m
2017/09/20 01:20 EBLG 200120Z 24006KT 1800 BR FEW002 SCT003 10/09 Q1021 TEMPO 1400 BKN003
EBDT - Schaffen, Belgium
Distance de la station: NE 93km
Mise à jour: 20/09/2017 03:42
brume, nuageux
brume, nuageux
 Wind from SO
Vent: SO 9 km/h
Température: 11°C
Point de rosée: 11°C
Humidité: 100%
Baromètre: 1021 hPa
Résumé: brume
Ciel: nuageux
Visibilité: 4 km
Détails du ciel: nuageux 1829 m
2017/09/20 01:42 EBDT 200142Z AUTO 23005KT 3600 BR BKN060/// 11/11 Q1021 YLO
 
EBAW - Antwerp/Deurne, Belgium
Distance de la station: N 96km
Mise à jour: 20/09/2017 03:20
clair
clair
 Wind from OSO
Vent: OSO 9 km/h
Température: 12°C
Point de rosée: 11°C
Humidité: 94%
Baromètre: 1021 hPa
Ciel: clair
Visibilité: 7 km
2017/09/20 01:20 EBAW 200120Z AUTO 24005KT 7000 // NCD 12/11 Q1021
LFAQ - Bray, France
Distance de la station: OSO 119km
Mise à jour: 20/09/2017 03:30

 Wind from varies
Vent: varies 0 km/h
2017/09/20 01:30 LFAQ 200130Z AUTO /////KT //// R27///// // ////// ///// Q1022
LFSR - Reims/Champagne, France
Distance de la station: S 120km
Mise à jour: 16/04/2012 09:00
NOT Current
partiellement nuageux
partiellement nuageux
 Wind from N
Vent: N 17 km/h
Température: 4°C
Température ressentie: 0°C
Point de rosée: 0°C
Humidité: 75%
Baromètre: 1022 hPa
Ciel: partiellement nuageux
Visibilité: 10 km
2012/04/16 07:00 LFSR 160700Z AUTO 01009KT 340V070 9999 NSC 04/00 Q1022
 
EHWO - Woensdrecht, Netherlands
Distance de la station: N 122km
Mise à jour: 20/09/2017 03:25
nuageux
nuageux
 Wind from OSO
Vent: OSO 9 km/h
Température: 10°C
Température ressentie: 9°C
Point de rosée: 10°C
Humidité: 100%
Baromètre: 1020 hPa
Ciel: nuageux
Visibilité: 10 km
Détails du ciel: partiellement nuageux 792 m
nuageux 1097 m
2017/09/20 01:25 EHWO 200125Z AUTO 24005KT 9999 SCT026 BKN036 10/10 Q1020 BLU
EHBK - Zuid-Limburg, Netherlands
Distance de la station: ENE 123km
Mise à jour: 20/09/2017 03:25
brume, partiellement nuageux
brume, partiellement nuageux
 Wind from SSO
Vent: SSO 9 km/h
Température: 10°C
Température ressentie: 9°C
Point de rosée: 10°C
Humidité: 100%
Baromètre: 1021 hPa
Résumé: brume
Ciel: partiellement nuageux
Visibilité: 5 km
2017/09/20 01:25 EHBK 200125Z AUTO 20005KT 4500 BR NSC 10/10 Q1021
EBBL - Kleine-Brogel, Belgium
Distance de la station: NE 124km
Mise à jour: 20/09/2017 03:25
brume, nuageux
brume, nuageux
 Wind from varies
Vent: varies 4 km/h
Température: 10°C
Point de rosée: 10°C
Humidité: 100%
Baromètre: 1021 hPa
Résumé: brume
Ciel: nuageux
Visibilité: 3 km
Détails du ciel: nuageux 1707 m
2017/09/20 01:25 EBBL 200125Z AUTO VRB02KT 2700 BR BKN056/// 10/10 Q1021 YLO
 
EBLB - Elsenborn, Belgium
Distance de la station: E 135km
Mise à jour: 20/09/2017 03:25
brouillard, couvert
brouillard, couvert
 Wind from O
Vent: O 6 km/h
Température: 8°C
Point de rosée: 8°C
Humidité: 100%
Baromètre: 1021 hPa
Résumé: brouillard
Ciel: couvert
Visibilité: 0 km
Détails du ciel: couvert 61 m
2017/09/20 01:25 EBLB 200125Z AUTO 26003KT 0250 FG VV002/// 08/08 Q1021 RED
EBOS - Oostende Airport, Belgium
Distance de la station: NO 136km
Mise à jour: 20/09/2017 03:20
nuageux
nuageux
 Wind from SSO
Vent: SSO 11 km/h
Température: 10°C
Température ressentie: 8°C
Point de rosée: 8°C
Humidité: 88%
Baromètre: 1021 hPa
Ciel: nuageux
Visibilité: 7 km
Détails du ciel: nuageux 975 m
2017/09/20 01:20 EBOS 200120Z 20006KT 7000 BKN032 10/08 Q1021 BECMG 4000 BR
EBFN - Koksijde, Belgium
Distance de la station: NO 140km
Mise à jour: 20/09/2017 03:25
partiellement nuageux
partiellement nuageux
 Wind from varies
Vent: varies 4 km/h
Température: 9°C
Point de rosée: 9°C
Humidité: 100%
Baromètre: 1022 hPa
Ciel: partiellement nuageux
Visibilité: 7 km
Détails du ciel: partiellement nuageux 1280 m
2017/09/20 01:25 EBFN 200125Z AUTO VRB02KT 7000 SCT042/// 09/09 Q1022 WHT
 
ETNG - Geilenkirchen, Germany
Distance de la station: ENE 142km
Mise à jour: 20/09/2017 03:50
nuageux
nuageux
 Wind from OSO
Vent: OSO 7 km/h
Température: 11°C
Point de rosée: 9°C
Humidité: 88%
Baromètre: 1021 hPa
Ciel: nuageux
Visibilité: 9 km
Détails du ciel: nuageux 2134 m
2017/09/20 01:50 ETNG 200150Z 24004KT 9000 BKN070 11/09 Q1021
EHGR - Gilze-Rijen, Netherlands
Distance de la station: NNE 143km
Mise à jour: 20/09/2017 03:25
brume, couvert
brume, couvert
 Wind from SO
Vent: SO 7 km/h
Température: 11°C
Point de rosée: 11°C
Humidité: 100%
Baromètre: 1020 hPa
Résumé: brume
Ciel: couvert
Visibilité: 6 km
Détails du ciel: partiellement nuageux 1402 m
partiellement nuageux 1768 m
couvert 1951 m
2017/09/20 01:25 EHGR 200125Z AUTO 23004KT 6000 BR SCT046 SCT058 OVC064 11/11 Q1020 WHT
EHEH - Eindhoven, Netherlands
Distance de la station: NNE 147km
Mise à jour: 20/09/2017 03:44
brume, couvert
brume, couvert
 Wind from OSO
Vent: OSO 7 km/h
Température: 10°C
Température ressentie: 9°C
Point de rosée: 10°C
Humidité: 100%
Baromètre: 1020 hPa
Résumé: brume
Ciel: couvert
Visibilité: 7 km
Détails du ciel: nuageux 2286 m
couvert 5486 m
2017/09/20 01:44 EHEH 200144Z AUTO 25004KT 230V310 7000 BR BKN075 OVC180 10/10 Q1020 WHT
 
ELLX - Luxembourg, Luxembourg
Distance de la station: ESE 162km
Mise à jour: 20/09/2017 03:20
couvert
couvert
 Wind from varies
Vent: varies 2 km/h
Température: 9°C
Point de rosée: 8°C
Humidité: 94%
Baromètre: 1021 hPa
Ciel: couvert
Visibilité: 10 km
Détails du ciel: couvert 1554 m
2017/09/20 01:20 ELLX 200120Z AUTO VRB01KT 9999 OVC051/// 09/08 Q1021 NOSIG
EHVK - Volkel, Netherlands
Distance de la station: NE 174km
Mise à jour: 20/09/2017 03:43
brume, couvert
brume, couvert
 Wind from OSO
Vent: OSO 6 km/h
Température: 9°C
Point de rosée: 9°C
Humidité: 100%
Baromètre: 1020 hPa
Résumé: brume
Ciel: couvert
Visibilité: 4 km
Détails du ciel: nuageux 2195 m
couvert 5486 m
2017/09/20 01:43 EHVK 200143Z AUTO 24003KT 4400 BR BKN072 OVC180 09/09 Q1020 GRN
LFOK - Chalons/Vatry, France
Distance de la station: S 174km
Mise à jour: 20/09/2017 03:30
clair
clair
 Wind from O
Vent: O 9 km/h
Température: 8°C
Température ressentie: 6°C
Point de rosée: 7°C
Humidité: 93%
Baromètre: 1023 hPa
Résumé: clair
Visibilité: greater than 10 km
2017/09/20 01:30 LFOK 200130Z AUTO 28005KT CAVOK 08/07 Q1023 BECMG 0200 FG VV///

Script from Saratoga-Weather.org